createdAt,value
2022-11-07T00:01:00.734Z,87.42
2022-11-07T00:03:46.422Z,87.38
2022-11-07T00:06:31.569Z,87.49
2022-11-07T00:09:16.523Z,87.99
2022-11-07T00:12:01.959Z,88.05
2022-11-07T00:14:47.917Z,88.24
2022-11-07T00:17:32.905Z,88.15
2022-11-07T00:20:18.214Z,88.22
2022-11-07T00:23:03.094Z,88.50
2022-11-07T00:25:48.283Z,88.56
2022-11-07T00:28:34.146Z,88.69
2022-11-07T00:31:19.640Z,88.87
2022-11-07T00:34:04.469Z,88.82
2022-11-07T00:36:49.800Z,88.76
2022-11-07T00:39:35.066Z,88.68
2022-11-07T00:42:19.896Z,88.12
2022-11-07T00:45:05.340Z,87.97
2022-11-07T00:47:50.193Z,88.00
2022-11-07T00:50:35.094Z,88.20
2022-11-07T00:53:20.175Z,88.26
2022-11-07T00:56:09.148Z,88.42
2022-11-07T00:58:58.780Z,88.47
2022-11-07T01:01:43.968Z,88.43
2022-11-07T01:04:28.941Z,88.33
2022-11-07T01:07:13.896Z,87.85
2022-11-07T01:09:59.082Z,88.09
2022-11-07T01:12:43.970Z,88.30
2022-11-07T01:15:28.747Z,88.12
2022-11-07T01:18:14.393Z,88.16
2022-11-07T01:20:59.375Z,88.08
2022-11-07T01:23:44.841Z,88.07
2022-11-07T01:26:29.864Z,88.43
2022-11-07T01:29:17.472Z,88.36
2022-11-07T01:32:02.602Z,88.40
2022-11-07T01:34:47.342Z,88.04
2022-11-07T01:37:32.202Z,87.87
2022-11-07T01:40:17.543Z,88.66
2022-11-07T01:43:02.410Z,88.86
2022-11-07T01:45:47.382Z,88.76
2022-11-07T01:48:32.866Z,88.51
2022-11-07T01:51:19.330Z,89.03
2022-11-07T01:54:05.191Z,89.17
2022-11-07T01:56:51.202Z,88.97
2022-11-07T01:59:37.384Z,89.35
2022-11-07T02:02:25.218Z,89.83
2022-11-07T02:05:17.275Z,90.06
2022-11-07T02:08:06.305Z,89.84
2022-11-07T02:10:53.172Z,90.56
2022-11-07T02:13:38.364Z,90.49
2022-11-07T02:16:23.207Z,90.98
2022-11-07T02:19:13.977Z,90.54
2022-11-07T02:22:02.724Z,90.57
2022-11-07T02:24:51.558Z,90.87
2022-11-07T02:27:37.307Z,90.64
2022-11-07T02:30:26.455Z,89.87
2022-11-07T02:33:23.116Z,90.50
2022-11-07T02:36:14.367Z,90.27
2022-11-07T02:38:59.802Z,90.54
2022-11-07T02:41:46.249Z,90.51
2022-11-07T02:44:30.991Z,90.72
2022-11-07T02:47:16.160Z,90.48
2022-11-07T02:50:01.215Z,90.56
2022-11-07T02:52:47.097Z,91.05
2022-11-07T02:55:31.905Z,90.66
2022-11-07T02:58:16.931Z,90.67
2022-11-07T03:01:02.117Z,91.13
2022-11-07T03:03:49.611Z,91.01
2022-11-07T03:06:34.972Z,91.81
2022-11-07T03:09:19.834Z,91.63
2022-11-07T03:12:05.014Z,91.41
2022-11-07T03:14:50.167Z,91.48
2022-11-07T03:17:35.648Z,91.73
2022-11-07T03:20:20.878Z,91.93
2022-11-07T03:23:06.128Z,92.02
2022-11-07T03:25:51.114Z,91.80
2022-11-07T03:28:36.406Z,91.81
2022-11-07T03:31:21.658Z,92.36
2022-11-07T03:34:07.184Z,92.37
2022-11-07T03:36:52.513Z,92.56
2022-11-07T03:39:37.419Z,92.67
2022-11-07T03:42:22.713Z,92.48
2022-11-07T03:45:09.535Z,92.74
2022-11-07T03:47:54.946Z,92.57
2022-11-07T03:50:39.841Z,93.20
2022-11-07T03:53:26.030Z,93.31
2022-11-07T03:56:12.803Z,93.10
2022-11-07T03:58:58.187Z,92.99
2022-11-07T04:01:43.321Z,93.23
2022-11-07T04:04:28.567Z,93.17
2022-11-07T04:07:13.387Z,93.02
2022-11-07T04:09:58.596Z,93.11
2022-11-07T04:12:44.327Z,93.21
2022-11-07T04:15:29.492Z,93.07
2022-11-07T04:18:14.839Z,93.14
2022-11-07T04:21:00.354Z,93.22
2022-11-07T04:23:45.921Z,93.19
2022-11-07T04:26:30.811Z,93.41
2022-11-07T04:29:15.758Z,93.52
2022-11-07T04:32:00.774Z,93.81
2022-11-07T04:34:45.599Z,93.30
2022-11-07T04:37:30.566Z,93.40
2022-11-07T04:40:16.876Z,93.07
2022-11-07T04:43:01.916Z,93.47
2022-11-07T04:45:46.742Z,93.49
2022-11-07T04:48:31.528Z,93.61
2022-11-07T04:51:21.345Z,93.38
2022-11-07T04:54:06.402Z,93.76
2022-11-07T04:56:51.334Z,93.86
2022-11-07T04:59:36.692Z,93.92
2022-11-07T05:02:23.677Z,93.95
2022-11-07T05:05:09.401Z,92.90
2022-11-07T05:07:54.247Z,92.84
2022-11-07T05:10:39.304Z,92.86
2022-11-07T05:13:24.821Z,92.90
2022-11-07T05:16:15.245Z,93.06
2022-11-07T05:19:00.475Z,93.53
2022-11-07T05:21:46.563Z,93.77
2022-11-07T05:24:31.593Z,93.43
2022-11-07T05:27:18.566Z,94.40
2022-11-07T05:30:05.139Z,94.65
2022-11-07T05:32:49.867Z,94.96
2022-11-07T05:35:35.150Z,95.15
2022-11-07T05:38:20.303Z,95.83
2022-11-07T05:41:05.949Z,96.13
2022-11-07T05:43:50.747Z,96.56
2022-11-07T05:46:35.689Z,96.00
2022-11-07T05:49:20.526Z,96.38
2022-11-07T05:52:05.390Z,96.80
2022-11-07T05:54:50.632Z,96.87
2022-11-07T05:57:35.515Z,96.93
2022-11-07T06:00:20.610Z,96.75
2022-11-07T06:03:05.899Z,97.09
2022-11-07T06:05:50.874Z,97.20
2022-11-07T06:08:36.148Z,97.25
2022-11-07T06:11:20.991Z,97.23
2022-11-07T06:14:05.899Z,97.03
2022-11-07T06:16:51.097Z,97.20
2022-11-07T06:19:36.371Z,97.39
2022-11-07T06:22:22.656Z,97.64
2022-11-07T06:25:08.144Z,97.80
2022-11-07T06:27:53.413Z,97.89
2022-11-07T06:30:38.436Z,97.76
2022-11-07T06:33:29.950Z,97.80
2022-11-07T06:36:17.701Z,97.72
2022-11-07T06:39:05.648Z,98.06
2022-11-07T06:41:50.737Z,98.36
2022-11-07T06:44:35.889Z,98.76
2022-11-07T06:47:21.249Z,98.79
2022-11-07T06:50:06.652Z,99.01
2022-11-07T06:52:52.055Z,99.47
2022-11-07T06:55:38.255Z,99.04
2022-11-07T06:58:23.330Z,99.27
2022-11-07T07:01:08.944Z,98.47
2022-11-07T07:03:53.922Z,98.61
2022-11-07T07:06:38.919Z,98.71
2022-11-07T07:09:23.842Z,98.97
2022-11-07T07:12:10.497Z,98.85
2022-11-07T07:14:55.543Z,98.43
2022-11-07T07:17:40.495Z,98.93
2022-11-07T07:20:25.451Z,98.71
2022-11-07T07:23:10.445Z,98.92
2022-11-07T07:25:55.437Z,99.28
2022-11-07T07:28:41.003Z,99.01
2022-11-07T07:31:30.535Z,98.74
2022-11-07T07:34:15.629Z,98.85
2022-11-07T07:37:00.354Z,98.80
2022-11-07T07:39:45.874Z,98.82
2022-11-07T07:42:30.984Z,98.71
2022-11-07T07:45:16.497Z,98.49
